Time;durP1;ratioP1;P1;durP2;ratioP2;P2;SDS_P1;SDS_P2;PMS_P1;PMS_P2;Temp;Humidity;BMP_temperature;BMP_pressure;BME280_temperature;BME280_humidity;BME280_pressure;Samples;Min_cycle;Max_cycle;Signal;HPM_P1;HPM_P2
2023/07/15 00:00:17;;;;;;;13.57;6.45;;;;;;;;;;9990722;28;20051;-46
2023/07/15 00:05:41;;;;;;;14.05;8.15;;;;;;;;;;9987974;28;20452;-43
2023/07/15 00:10:34;;;;;;;13.38;7.13;;;;;;;;;;9955966;28;20097;-49
2023/07/15 00:15:26;;;;;;;10.63;6.47;;;;;;;;;;9993004;28;20030;-47
2023/07/15 00:20:19;;;;;;;9.43;6.40;;;;;;;;;;9991230;28;20080;-46
2023/07/15 00:25:20;;;;;;;6.90;5.78;;;;;;;;;;9990346;28;20062;-49
2023/07/15 00:30:15;;;;;;;8.73;5.57;;;;;;;;;;9990232;28;20054;-47
2023/07/15 00:35:21;;;;;;;9.80;5.68;;;;;;;;;;9991851;28;20053;-46
2023/07/15 00:40:14;;;;;;;10.20;6.18;;;;;;;;;;9990992;28;20038;-49
2023/07/15 00:45:06;;;;;;;10.40;6.65;;;;;;;;;;9992543;28;20046;-49
2023/07/15 00:49:58;;;;;;;8.32;5.70;;;;;;;;;;9972199;28;20101;-47
2023/07/15 00:54:52;;;;;;;10.27;6.03;;;;;;;;;;9991679;28;20419;-46
2023/07/15 00:59:45;;;;;;;12.27;6.15;;;;;;;;;;9958400;28;20042;-47
2023/07/15 01:04:37;;;;;;;8.50;5.88;;;;;;;;;;9989835;28;20563;-46
2023/07/15 01:09:29;;;;;;;8.20;6.53;;;;;;;;;;9991029;28;20318;-48
2023/07/15 01:14:20;;;;;;;6.85;6.03;;;;;;;;;;9990964;28;20034;-46
2023/07/15 01:19:12;;;;;;;7.32;5.38;;;;;;;;;;9974364;28;20093;-46
2023/07/15 01:24:07;;;;;;;8.15;6.07;;;;;;;;;;9971915;28;20058;-46
2023/07/15 01:28:59;;;;;;;9.57;5.32;;;;;;;;;;9988677;28;20046;-46
2023/07/15 01:33:52;;;;;;;9.23;5.40;;;;;;;;;;9989452;28;20065;-46
2023/07/15 01:38:45;;;;;;;5.53;5.00;;;;;;;;;;9973069;28;20050;-46
2023/07/15 01:43:37;;;;;;;6.85;5.55;;;;;;;;;;9989289;28;20058;-47
2023/07/15 01:48:28;;;;;;;8.23;5.43;;;;;;;;;;9988967;28;20511;-46
2023/07/15 01:53:20;;;;;;;9.80;5.10;;;;;;;;;;9988549;28;20042;-48
2023/07/15 01:58:12;;;;;;;7.85;5.40;;;;;;;;;;9988679;28;20464;-46
2023/07/15 02:03:04;;;;;;;8.55;6.03;;;;;;;;;;9985674;28;20050;-46
2023/07/15 02:07:56;;;;;;;8.80;5.00;;;;;;;;;;9987542;28;20034;-46
2023/07/15 02:12:48;;;;;;;8.73;5.60;;;;;;;;;;9988180;28;20323;-47
2023/07/15 02:17:40;;;;;;;6.05;5.10;;;;;;;;;;9972333;28;20465;-47
2023/07/15 02:22:32;;;;;;;7.00;4.72;;;;;;;;;;9969271;28;20109;-46
2023/07/15 02:27:24;;;;;;;7.13;5.32;;;;;;;;;;9985592;28;20078;-46
2023/07/15 02:32:35;;;;;;;9.32;4.80;;;;;;;;;;9988495;28;20473;-46
2023/07/15 02:37:27;;;;;;;6.07;4.78;;;;;;;;;;9987792;28;20085;-46
2023/07/15 02:42:19;;;;;;;6.25;5.03;;;;;;;;;;9985514;28;20112;-47
2023/07/15 02:47:11;;;;;;;9.13;4.93;;;;;;;;;;9988137;28;20089;-46
2023/07/15 02:52:04;;;;;;;7.93;5.60;;;;;;;;;;9986965;28;20042;-46
2023/07/15 02:56:56;;;;;;;6.68;5.10;;;;;;;;;;9987193;28;20101;-46
2023/07/15 03:01:48;;;;;;;6.32;4.95;;;;;;;;;;9985755;28;20093;-48
2023/07/15 03:06:41;;;;;;;8.43;5.40;;;;;;;;;;9968806;28;20066;-47
2023/07/15 03:11:33;;;;;;;6.57;5.82;;;;;;;;;;9968162;28;20058;-46
2023/07/15 03:16:26;;;;;;;6.70;5.22;;;;;;;;;;9986621;28;20566;-48
2023/07/15 03:21:17;;;;;;;5.78;5.13;;;;;;;;;;9985841;28;20047;-46
2023/07/15 03:26:09;;;;;;;6.88;6.00;;;;;;;;;;9984935;28;20105;-46
2023/07/15 03:31:04;;;;;;;9.38;5.20;;;;;;;;;;9984477;28;20087;-47
2023/07/15 03:35:59;;;;;;;6.40;5.07;;;;;;;;;;9985036;28;20072;-47
2023/07/15 03:40:53;;;;;;;5.97;4.43;;;;;;;;;;9986011;28;20046;-47
2023/07/15 03:45:46;;;;;;;7.05;5.35;;;;;;;;;;9986066;28;20046;-48
2023/07/15 03:50:38;;;;;;;7.55;4.68;;;;;;;;;;9984466;28;20046;-47
2023/07/15 03:55:30;;;;;;;4.97;4.18;;;;;;;;;;9985076;28;20046;-50
2023/07/15 04:00:22;;;;;;;5.22;4.60;;;;;;;;;;9985813;28;20070;-47
2023/07/15 04:05:15;;;;;;;5.45;4.80;;;;;;;;;;9984475;28;20101;-47
2023/07/15 04:10:07;;;;;;;5.63;4.97;;;;;;;;;;9983165;28;20417;-46
2023/07/15 04:14:59;;;;;;;6.40;5.18;;;;;;;;;;9987407;28;20377;-48
2023/07/15 04:19:51;;;;;;;6.50;4.65;;;;;;;;;;9985808;28;20058;-46
2023/07/15 04:24:43;;;;;;;5.90;5.15;;;;;;;;;;9984170;28;20058;-46
2023/07/15 04:29:35;;;;;;;6.43;4.68;;;;;;;;;;9984580;28;20045;-47
2023/07/15 04:34:27;;;;;;;7.22;5.03;;;;;;;;;;9985426;28;20105;-50
2023/07/15 04:39:18;;;;;;;4.65;4.25;;;;;;;;;;9990659;28;20043;-47
2023/07/15 04:44:10;;;;;;;5.38;4.25;;;;;;;;;;9992259;28;20039;-46
2023/07/15 04:49:02;;;;;;;5.65;4.93;;;;;;;;;;9991173;28;20042;-46
2023/07/15 04:53:56;;;;;;;7.30;5.50;;;;;;;;;;9990129;28;20038;-47
2023/07/15 04:58:48;;;;;;;4.95;4.43;;;;;;;;;;9989755;28;20047;-49
2023/07/15 05:03:40;;;;;;;7.45;4.18;;;;;;;;;;9989713;28;20120;-47
2023/07/15 05:08:32;;;;;;;7.78;4.93;;;;;;;;;;9989857;28;20125;-46
2023/07/15 05:13:25;;;;;;;5.50;5.00;;;;;;;;;;9990472;28;20066;-46
2023/07/15 05:18:17;;;;;;;4.53;3.65;;;;;;;;;;9989134;28;20133;-48
2023/07/15 05:23:09;;;;;;;5.65;4.57;;;;;;;;;;9989763;28;20484;-48
2023/07/15 05:28:02;;;;;;;4.32;3.70;;;;;;;;;;9989650;28;20046;-46
2023/07/15 05:32:53;;;;;;;5.95;4.60;;;;;;;;;;9988772;28;20050;-46
2023/07/15 05:37:46;;;;;;;5.30;4.68;;;;;;;;;;9989114;28;20046;-47
2023/07/15 05:42:45;;;;;;;8.00;4.63;;;;;;;;;;9988954;28;20086;-47
2023/07/15 05:47:38;;;;;;;5.10;4.38;;;;;;;;;;9988657;28;20042;-47
2023/07/15 05:52:30;;;;;;;7.18;4.55;;;;;;;;;;9988639;28;20073;-47
2023/07/15 05:57:22;;;;;;;4.95;4.10;;;;;;;;;;9989098;28;20097;-47
2023/07/15 06:02:14;;;;;;;7.55;4.13;;;;;;;;;;9989270;28;20054;-47
2023/07/15 06:07:06;;;;;;;4.88;4.47;;;;;;;;;;9988949;28;20050;-47
2023/07/15 06:11:58;;;;;;;4.93;4.47;;;;;;;;;;9971176;28;20495;-47
2023/07/15 06:16:50;;;;;;;5.28;4.75;;;;;;;;;;9990146;28;20052;-46
2023/07/15 06:21:43;;;;;;;6.15;3.95;;;;;;;;;;9987795;28;20299;-50
2023/07/15 06:26:35;;;;;;;4.60;4.20;;;;;;;;;;9987846;28;20061;-46
2023/07/15 06:31:27;;;;;;;4.40;3.83;;;;;;;;;;9986714;28;20113;-47
2023/07/15 06:36:19;;;;;;;4.28;3.58;;;;;;;;;;9986533;28;20419;-47
2023/07/15 06:41:11;;;;;;;4.45;3.95;;;;;;;;;;9956457;28;20038;-47
2023/07/15 06:46:03;;;;;;;4.90;4.18;;;;;;;;;;9981857;28;20068;-48
2023/07/15 06:50:55;;;;;;;6.00;3.80;;;;;;;;;;9985634;28;20039;-49
2023/07/15 06:55:47;;;;;;;4.32;3.92;;;;;;;;;;9985935;28;20494;-46
2023/07/15 07:00:40;;;;;;;5.45;4.95;;;;;;;;;;9983052;28;20069;-47
2023/07/15 07:05:33;;;;;;;3.92;3.50;;;;;;;;;;9977546;28;20057;-48
2023/07/15 07:10:24;;;;;;;7.93;4.97;;;;;;;;;;9973577;28;20050;-46
2023/07/15 07:15:16;;;;;;;4.63;3.85;;;;;;;;;;9972905;28;20570;-46
2023/07/15 07:20:09;;;;;;;5.00;4.57;;;;;;;;;;9980521;28;20049;-46
2023/07/15 07:25:01;;;;;;;5.07;4.10;;;;;;;;;;9984934;28;20436;-47
2023/07/15 07:29:53;;;;;;;6.47;5.30;;;;;;;;;;9978517;28;20050;-47
2023/07/15 07:34:45;;;;;;;8.93;5.97;;;;;;;;;;9980535;28;20077;-47
2023/07/15 07:39:37;;;;;;;8.95;5.75;;;;;;;;;;9979545;28;20054;-47
2023/07/15 07:44:29;;;;;;;14.02;8.63;;;;;;;;;;9977056;28;20108;-46
2023/07/15 07:49:21;;;;;;;9.73;7.60;;;;;;;;;;9980916;28;20047;-46
2023/07/15 07:54:12;;;;;;;16.23;8.65;;;;;;;;;;9971805;28;20101;-47
2023/07/15 07:59:04;;;;;;;9.80;8.80;;;;;;;;;;9977374;28;20389;-48
2023/07/15 08:03:57;;;;;;;11.90;9.60;;;;;;;;;;9983091;28;20488;-47
2023/07/15 08:08:49;;;;;;;13.20;9.63;;;;;;;;;;9982743;28;20046;-48
2023/07/15 08:13:41;;;;;;;14.80;11.73;;;;;;;;;;9969030;28;20046;-45
2023/07/15 08:18:33;;;;;;;16.55;10.75;;;;;;;;;;9991000;28;20048;-45
2023/07/15 08:23:25;;;;;;;10.82;9.88;;;;;;;;;;9992796;28;20157;-45
2023/07/15 08:28:17;;;;;;;13.02;10.07;;;;;;;;;;9994642;28;20492;-49
2023/07/15 08:33:09;;;;;;;12.30;10.98;;;;;;;;;;9975409;28;20082;-45
2023/07/15 08:38:02;;;;;;;11.00;9.82;;;;;;;;;;9973953;28;20042;-44
2023/07/15 08:42:54;;;;;;;15.43;10.40;;;;;;;;;;9983124;28;20042;-45
2023/07/15 08:47:46;;;;;;;14.38;11.07;;;;;;;;;;9973069;28;20408;-45
2023/07/15 08:52:38;;;;;;;15.15;10.73;;;;;;;;;;9984712;28;20042;-43
2023/07/15 08:57:32;;;;;;;11.80;10.50;;;;;;;;;;9989455;28;20050;-43
2023/07/15 09:02:24;;;;;;;11.55;10.35;;;;;;;;;;9976414;28;20401;-44
2023/07/15 09:07:16;;;;;;;11.55;10.30;;;;;;;;;;9973972;28;20057;-44
2023/07/15 09:12:11;;;;;;;15.00;10.63;;;;;;;;;;9973253;28;20067;-44
2023/07/15 09:17:03;;;;;;;13.00;11.05;;;;;;;;;;9960234;28;20046;-44
2023/07/15 09:22:06;;;;;;;13.15;10.48;;;;;;;;;;9965817;28;20055;-43
2023/07/15 09:27:02;;;;;;;13.85;10.43;;;;;;;;;;9969252;28;20054;-44
2023/07/15 09:31:54;;;;;;;10.82;9.70;;;;;;;;;;9961775;28;20057;-44
2023/07/15 09:36:46;;;;;;;23.23;10.80;;;;;;;;;;9969792;28;20054;-45
2023/07/15 09:41:39;;;;;;;13.90;9.88;;;;;;;;;;9981180;28;20046;-45
2023/07/15 09:46:32;;;;;;;11.52;9.13;;;;;;;;;;9950309;28;20085;-44
2023/07/15 09:51:25;;;;;;;11.90;9.20;;;;;;;;;;9976881;28;20506;-44
2023/07/15 09:56:20;;;;;;;10.98;9.55;;;;;;;;;;9965168;28;20082;-41
2023/07/15 10:01:19;;;;;;;11.23;9.68;;;;;;;;;;9973762;28;20129;-44
2023/07/15 10:06:11;;;;;;;11.82;10.60;;;;;;;;;;9954103;28;20052;-41
2023/07/15 10:11:05;;;;;;;12.85;10.13;;;;;;;;;;9969390;28;20046;-43
2023/07/15 10:15:57;;;;;;;14.63;9.90;;;;;;;;;;9989056;28;20108;-43
2023/07/15 10:20:56;;;;;;;12.25;10.52;;;;;;;;;;10003732;28;20043;-46
2023/07/15 10:26:03;;;;;;;14.85;11.30;;;;;;;;;;9983303;28;20116;-47
2023/07/15 10:31:14;;;;;;;17.42;11.40;;;;;;;;;;9977004;28;20050;-46
2023/07/15 10:36:06;;;;;;;12.52;11.02;;;;;;;;;;9977698;28;20042;-45
2023/07/15 10:41:02;;;;;;;13.73;10.57;;;;;;;;;;9989961;28;20093;-47
2023/07/15 10:45:54;;;;;;;11.50;10.25;;;;;;;;;;9988393;28;20050;-47
2023/07/15 10:50:53;;;;;;;14.10;10.65;;;;;;;;;;9989495;28;20046;-46
2023/07/15 10:55:49;;;;;;;11.63;10.52;;;;;;;;;;9990375;28;20420;-46
2023/07/15 11:00:41;;;;;;;21.15;11.25;;;;;;;;;;9971176;28;20054;-47
2023/07/15 11:05:33;;;;;;;11.23;10.05;;;;;;;;;;9982412;28;20050;-47
2023/07/15 11:10:32;;;;;;;13.48;10.40;;;;;;;;;;9985772;28;20591;-47
2023/07/15 11:15:28;;;;;;;10.52;9.50;;;;;;;;;;9985645;28;20038;-47
2023/07/15 11:20:20;;;;;;;12.52;10.95;;;;;;;;;;9978045;28;20042;-46
2023/07/15 11:25:14;;;;;;;11.45;10.05;;;;;;;;;;9987215;28;20141;-47
2023/07/15 11:30:06;;;;;;;12.88;10.45;;;;;;;;;;9986910;28;20093;-47
2023/07/15 11:35:09;;;;;;;17.40;10.52;;;;;;;;;;9986064;28;20054;-46
2023/07/15 11:40:03;;;;;;;15.20;10.77;;;;;;;;;;9977125;28;20044;-48
2023/07/15 11:44:57;;;;;;;17.42;11.05;;;;;;;;;;9980947;28;20051;-47
2023/07/15 11:49:49;;;;;;;8.98;7.78;;;;;;;;;;9985572;28;20084;-46
2023/07/15 11:54:45;;;;;;;9.07;8.18;;;;;;;;;;9984543;28;20042;-47
2023/07/15 11:59:37;;;;;;;9.52;8.32;;;;;;;;;;9974772;28;20047;-47
2023/07/15 12:04:29;;;;;;;9.63;8.65;;;;;;;;;;9970315;28;20117;-45
2023/07/15 12:09:22;;;;;;;10.30;8.95;;;;;;;;;;9979581;28;20047;-47
2023/07/15 12:14:16;;;;;;;9.57;8.13;;;;;;;;;;9972284;28;20426;-46
2023/07/15 12:19:12;;;;;;;12.27;8.63;;;;;;;;;;9980483;28;20051;-46
2023/07/15 12:24:04;;;;;;;16.75;8.45;;;;;;;;;;9986595;28;20483;-45
2023/07/15 12:28:56;;;;;;;15.75;8.52;;;;;;;;;;9986689;28;20046;-46
2023/07/15 12:33:48;;;;;;;10.00;7.93;;;;;;;;;;9984854;28;20050;-48
2023/07/15 12:38:41;;;;;;;10.20;7.88;;;;;;;;;;9986934;28;20130;-47
2023/07/15 12:43:33;;;;;;;13.27;8.43;;;;;;;;;;9978151;28;20472;-47
2023/07/15 12:48:25;;;;;;;13.05;7.32;;;;;;;;;;9972498;28;20137;-47
2023/07/15 12:53:17;;;;;;;9.60;6.72;;;;;;;;;;9984976;28;20042;-47
2023/07/15 12:58:10;;;;;;;16.92;6.72;;;;;;;;;;9981847;28;20148;-46
2023/07/15 13:03:02;;;;;;;9.52;7.63;;;;;;;;;;9993630;28;20162;-46
2023/07/15 13:07:54;;;;;;;9.57;6.70;;;;;;;;;;9992796;28;20073;-46
2023/07/15 13:12:46;;;;;;;8.18;6.68;;;;;;;;;;9993140;28;20511;-45
2023/07/15 13:17:40;;;;;;;10.07;7.20;;;;;;;;;;9990668;28;20049;-48
2023/07/15 13:22:32;;;;;;;9.25;7.68;;;;;;;;;;9988621;28;20137;-48
2023/07/15 13:27:24;;;;;;;9.52;8.25;;;;;;;;;;9992524;28;20085;-47
2023/07/15 13:32:15;;;;;;;10.15;7.00;;;;;;;;;;9988131;28;20464;-50
2023/07/15 13:37:07;;;;;;;12.93;8.48;;;;;;;;;;9988456;28;20054;-47
2023/07/15 13:42:00;;;;;;;11.13;7.40;;;;;;;;;;9988234;28;20047;-47
2023/07/15 13:46:52;;;;;;;13.95;8.18;;;;;;;;;;9990277;28;20153;-46
2023/07/15 13:51:43;;;;;;;7.85;6.95;;;;;;;;;;9991525;28;20050;-48
2023/07/15 13:56:35;;;;;;;8.75;7.28;;;;;;;;;;9991137;28;20048;-46
2023/07/15 14:01:27;;;;;;;11.43;7.70;;;;;;;;;;9990835;28;20132;-51
2023/07/15 14:06:20;;;;;;;15.63;7.25;;;;;;;;;;9991284;28;20050;-47
2023/07/15 14:11:12;;;;;;;10.07;7.82;;;;;;;;;;9988594;28;20046;-48
2023/07/15 14:16:04;;;;;;;11.60;7.55;;;;;;;;;;9990126;28;20468;-48
2023/07/15 14:20:57;;;;;;;9.35;7.97;;;;;;;;;;9990193;28;20089;-47
2023/07/15 14:25:49;;;;;;;12.00;7.53;;;;;;;;;;9990412;28;20400;-47
2023/07/15 14:30:42;;;;;;;11.48;6.88;;;;;;;;;;9987793;28;20061;-47
2023/07/15 14:35:33;;;;;;;13.93;7.00;;;;;;;;;;9987457;28;20038;-47
2023/07/15 14:40:25;;;;;;;8.90;7.68;;;;;;;;;;9989959;28;20038;-47
2023/07/15 14:45:17;;;;;;;8.73;7.30;;;;;;;;;;9989528;28;20108;-47
2023/07/15 14:50:09;;;;;;;7.78;6.97;;;;;;;;;;9988906;28;20540;-47
2023/07/15 14:55:01;;;;;;;10.52;7.85;;;;;;;;;;9989531;28;20066;-51
2023/07/15 14:59:53;;;;;;;8.25;6.97;;;;;;;;;;9985244;28;20129;-49
2023/07/15 15:04:45;;;;;;;7.75;6.95;;;;;;;;;;9988790;28;20053;-47
2023/07/15 15:09:37;;;;;;;8.10;6.65;;;;;;;;;;9988718;28;20146;-49
2023/07/15 15:14:29;;;;;;;10.73;7.25;;;;;;;;;;9987825;28;20038;-48
2023/07/15 15:19:21;;;;;;;8.50;6.28;;;;;;;;;;9989166;28;20416;-50
2023/07/15 15:24:12;;;;;;;8.30;6.50;;;;;;;;;;9982257;28;20072;-48
2023/07/15 15:29:04;;;;;;;7.10;6.13;;;;;;;;;;9992030;28;20411;-48
2023/07/15 15:33:56;;;;;;;7.65;5.88;;;;;;;;;;9980133;28;20038;-45
2023/07/15 15:38:48;;;;;;;7.68;6.60;;;;;;;;;;9980540;28;20054;-46
2023/07/15 15:43:41;;;;;;;9.02;6.47;;;;;;;;;;9981919;28;20057;-48
2023/07/15 15:48:34;;;;;;;8.13;7.13;;;;;;;;;;10000616;28;20056;-48
2023/07/15 15:53:25;;;;;;;9.38;7.38;;;;;;;;;;9987766;28;20062;-48
2023/07/15 15:58:17;;;;;;;9.07;6.40;;;;;;;;;;9988065;28;20084;-48
2023/07/15 16:03:10;;;;;;;9.32;6.53;;;;;;;;;;9993138;28;20042;-47
2023/07/15 16:08:02;;;;;;;7.82;5.70;;;;;;;;;;9987948;28;20050;-47
2023/07/15 16:12:54;;;;;;;7.93;6.00;;;;;;;;;;9987158;28;20519;-49
2023/07/15 16:17:46;;;;;;;8.57;6.35;;;;;;;;;;9987218;28;20043;-48
2023/07/15 16:22:38;;;;;;;10.32;6.90;;;;;;;;;;9987010;28;20046;-48
2023/07/15 16:27:30;;;;;;;6.72;5.80;;;;;;;;;;9987255;28;20060;-48
2023/07/15 16:32:24;;;;;;;10.68;6.40;;;;;;;;;;9987339;28;20476;-48
2023/07/15 16:37:16;;;;;;;7.03;6.30;;;;;;;;;;10006800;28;20137;-52
2023/07/15 16:42:08;;;;;;;7.40;6.63;;;;;;;;;;9994431;28;20042;-49
2023/07/15 16:47:00;;;;;;;7.80;6.32;;;;;;;;;;9990610;28;20134;-48
2023/07/15 16:51:52;;;;;;;7.60;6.85;;;;;;;;;;9980166;28;20129;-51
2023/07/15 16:56:43;;;;;;;7.47;6.45;;;;;;;;;;9989128;28;20054;-49
2023/07/15 17:01:35;;;;;;;8.15;6.13;;;;;;;;;;9993462;28;20413;-47
2023/07/15 17:06:27;;;;;;;7.45;6.55;;;;;;;;;;9990388;28;20046;-47
2023/07/15 17:11:19;;;;;;;6.82;5.82;;;;;;;;;;9993382;28;20054;-50
2023/07/15 17:16:11;;;;;;;8.43;5.70;;;;;;;;;;9993778;28;20042;-47
2023/07/15 17:21:03;;;;;;;10.63;6.97;;;;;;;;;;9989274;28;20130;-47
2023/07/15 17:25:55;;;;;;;8.23;7.05;;;;;;;;;;9989607;28;20057;-49
2023/07/15 17:30:47;;;;;;;9.70;7.10;;;;;;;;;;9990149;28;20081;-47
2023/07/15 17:35:39;;;;;;;7.95;6.43;;;;;;;;;;9992339;28;20049;-47
2023/07/15 17:40:31;;;;;;;7.93;6.97;;;;;;;;;;9989441;28;20137;-51
2023/07/15 17:45:23;;;;;;;10.70;7.25;;;;;;;;;;9984807;28;20521;-48
2023/07/15 17:50:15;;;;;;;10.15;6.63;;;;;;;;;;9987025;28;20174;-48
2023/07/15 17:55:07;;;;;;;12.35;6.55;;;;;;;;;;9988361;28;20046;-49
2023/07/15 18:00:15;;;;;;;12.07;6.25;;;;;;;;;;9985077;28;20056;-46
2023/07/15 18:05:07;;;;;;;9.68;6.15;;;;;;;;;;9981125;28;20050;-48
2023/07/15 18:09:59;;;;;;;8.18;5.70;;;;;;;;;;9987539;28;20050;-49
2023/07/15 18:14:51;;;;;;;9.18;6.97;;;;;;;;;;9978416;28;20476;-50
2023/07/15 18:19:42;;;;;;;15.02;7.22;;;;;;;;;;9972636;28;20603;-47
2023/07/15 18:24:34;;;;;;;10.75;7.28;;;;;;;;;;9983431;28;20540;-48
2023/07/15 18:29:26;;;;;;;11.50;8.05;;;;;;;;;;10012495;28;20046;-48
2023/07/15 18:34:18;;;;;;;8.48;6.60;;;;;;;;;;9987573;28;20435;-48
2023/07/15 18:39:16;;;;;;;13.63;8.68;;;;;;;;;;9984819;28;20046;-49
2023/07/15 18:44:08;;;;;;;9.30;7.15;;;;;;;;;;10006933;28;20121;-48
2023/07/15 18:48:59;;;;;;;11.30;6.57;;;;;;;;;;9966864;28;20059;-48
2023/07/15 18:53:51;;;;;;;11.20;6.80;;;;;;;;;;9973778;28;20104;-48
2023/07/15 18:58:43;;;;;;;11.55;7.10;;;;;;;;;;9991410;28;20050;-46
2023/07/15 19:03:35;;;;;;;9.63;6.88;;;;;;;;;;9975278;28;20096;-46
2023/07/15 19:08:29;;;;;;;8.95;7.07;;;;;;;;;;9985207;28;20540;-48
2023/07/15 19:13:21;;;;;;;7.60;6.15;;;;;;;;;;9987551;28;20105;-47
2023/07/15 19:18:13;;;;;;;11.30;7.63;;;;;;;;;;9987508;28;20451;-48
2023/07/15 19:23:05;;;;;;;10.15;6.07;;;;;;;;;;9985208;28;20048;-48
2023/07/15 19:27:57;;;;;;;9.55;6.68;;;;;;;;;;9985867;28;20062;-48
2023/07/15 19:32:49;;;;;;;11.27;6.32;;;;;;;;;;9985934;28;20096;-47
2023/07/15 19:37:40;;;;;;;9.45;6.07;;;;;;;;;;9986345;28;20061;-48
2023/07/15 19:42:34;;;;;;;7.47;6.65;;;;;;;;;;9985698;28;20113;-48
2023/07/15 19:47:26;;;;;;;9.43;6.28;;;;;;;;;;9989175;28;20081;-47
2023/07/15 19:52:18;;;;;;;7.93;5.57;;;;;;;;;;9989272;28;20047;-47
2023/07/15 19:57:09;;;;;;;7.70;5.80;;;;;;;;;;9985375;28;20177;-48
2023/07/15 20:02:01;;;;;;;9.48;6.97;;;;;;;;;;9983618;28;20050;-49
2023/07/15 20:06:54;;;;;;;22.73;8.68;;;;;;;;;;9984312;28;20046;-48
2023/07/15 20:11:47;;;;;;;9.63;6.13;;;;;;;;;;9992810;28;20050;-48
2023/07/15 20:16:39;;;;;;;7.78;6.70;;;;;;;;;;9992770;28;20080;-48
2023/07/15 20:21:31;;;;;;;8.13;5.97;;;;;;;;;;9993251;28;20065;-49
2023/07/15 20:26:26;;;;;;;9.45;6.43;;;;;;;;;;9992446;28;20050;-48
2023/07/15 20:31:18;;;;;;;7.90;6.32;;;;;;;;;;9994431;28;20142;-47
2023/07/15 20:36:10;;;;;;;7.82;5.95;;;;;;;;;;9995485;28;20573;-47
2023/07/15 20:41:02;;;;;;;7.68;6.28;;;;;;;;;;9988850;28;20054;-48
2023/07/15 20:45:56;;;;;;;9.50;5.45;;;;;;;;;;9979084;28;20051;-49
2023/07/15 20:50:48;;;;;;;8.43;5.97;;;;;;;;;;9966737;28;20050;-45
2023/07/15 20:55:40;;;;;;;8.60;6.68;;;;;;;;;;9976387;28;20043;-45
2023/07/15 21:00:32;;;;;;;7.45;6.25;;;;;;;;;;9974162;28;20046;-45
2023/07/15 21:05:24;;;;;;;6.68;5.13;;;;;;;;;;9993646;28;20523;-45
2023/07/15 21:10:16;;;;;;;11.30;5.75;;;;;;;;;;9992469;28;20427;-42
2023/07/15 21:15:08;;;;;;;9.18;6.82;;;;;;;;;;9993055;28;20070;-45
2023/07/15 21:20:00;;;;;;;6.50;5.80;;;;;;;;;;9992624;28;20097;-45
2023/07/15 21:24:52;;;;;;;6.25;5.72;;;;;;;;;;9992293;28;20054;-45
2023/07/15 21:29:44;;;;;;;8.35;6.68;;;;;;;;;;9992854;28;20054;-46
2023/07/15 21:34:36;;;;;;;8.20;6.15;;;;;;;;;;9992149;28;20038;-45
2023/07/15 21:39:28;;;;;;;6.40;5.80;;;;;;;;;;9991943;28;20042;-45
2023/07/15 21:44:20;;;;;;;6.22;5.63;;;;;;;;;;9992237;28;20038;-46
2023/07/15 21:49:12;;;;;;;9.32;5.90;;;;;;;;;;9992277;28;20439;-46
2023/07/15 21:54:03;;;;;;;6.55;5.43;;;;;;;;;;9991489;28;20050;-47
2023/07/15 21:58:55;;;;;;;5.65;5.13;;;;;;;;;;9991709;28;20065;-46
2023/07/15 22:03:47;;;;;;;5.38;4.72;;;;;;;;;;9991799;28;20058;-45
2023/07/15 22:08:39;;;;;;;6.78;5.63;;;;;;;;;;9990989;28;20100;-45
2023/07/15 22:13:31;;;;;;;7.35;5.13;;;;;;;;;;9991319;28;20050;-45
2023/07/15 22:18:24;;;;;;;5.70;5.10;;;;;;;;;;9990770;28;20062;-46
2023/07/15 22:23:31;;;;;;;6.22;5.22;;;;;;;;;;9991374;28;20100;-45
2023/07/15 22:28:23;;;;;;;6.60;5.93;;;;;;;;;;9990754;28;20046;-47
2023/07/15 22:33:15;;;;;;;8.30;5.80;;;;;;;;;;9989616;28;20173;-45
2023/07/15 22:38:07;;;;;;;7.07;5.57;;;;;;;;;;9981786;28;20046;-45
2023/07/15 22:42:59;;;;;;;8.52;5.47;;;;;;;;;;9994277;28;20534;-45
2023/07/15 22:47:50;;;;;;;7.30;5.53;;;;;;;;;;9984351;28;20567;-44
2023/07/15 22:52:42;;;;;;;5.70;5.07;;;;;;;;;;9984089;28;20053;-46
2023/07/15 22:57:34;;;;;;;6.60;5.78;;;;;;;;;;9971000;28;20451;-45
2023/07/15 23:02:26;;;;;;;6.97;5.45;;;;;;;;;;9982084;28;20070;-43
2023/07/15 23:07:18;;;;;;;6.82;5.93;;;;;;;;;;9983754;28;20047;-46
2023/07/15 23:12:10;;;;;;;6.18;5.50;;;;;;;;;;9984442;28;20081;-45
2023/07/15 23:17:02;;;;;;;5.47;4.97;;;;;;;;;;9983771;28;20078;-45
2023/07/15 23:21:54;;;;;;;6.00;5.40;;;;;;;;;;9985079;28;20046;-46
2023/07/15 23:26:45;;;;;;;6.00;5.40;;;;;;;;;;9986959;28;20137;-45
2023/07/15 23:31:37;;;;;;;5.63;5.07;;;;;;;;;;9985456;28;20093;-44
2023/07/15 23:36:29;;;;;;;5.90;5.05;;;;;;;;;;9986114;28;20133;-45
2023/07/15 23:41:21;;;;;;;6.57;5.97;;;;;;;;;;9988522;28;20484;-45
2023/07/15 23:46:13;;;;;;;5.53;4.97;;;;;;;;;;9986736;28;20504;-46
2023/07/15 23:51:06;;;;;;;5.88;4.70;;;;;;;;;;9984122;28;20035;-45
2023/07/15 23:55:57;;;;;;;6.00;5.38;;;;;;;;;;9985452;28;20114;-44
